Southern View, Illinois
Current Conditions -  °F | °C
As of 3:52 AM on Saturday 22 Nov 2014 (Local Time) from KSPI Reporting Station
Overcast Overcast  
Wind Chill: 32°   Ceiling: 4100
Heat Index: 39°   Visibility: 9mi
Dew Point: 34°   Wind: 10mph
Humidity: 82%   Direction: 180°S
Pressure: 30.12"   Gusts: NA
Location:  39.7587°N, 89.6325°W
Report Text: KSPI 220952Z 18009KT 9SM OVC041 04/01 A3012 RMK AO2 SLP203 T00390011
Loading
Personal Weather Stations






























Interactive Weather Map New forecast layout! Learn more

10-Day Weather Forecast

Advertisements
Track Severe Weather on mobile